createdAt,value
2018-05-23T00:00:22.049Z,17.57
2018-05-23T00:02:50.457Z,17.30
2018-05-23T00:05:18.068Z,17.93
2018-05-23T00:07:46.439Z,18.97
2018-05-23T00:10:14.065Z,20.10
2018-05-23T00:12:41.715Z,18.27
2018-05-23T00:15:09.303Z,18.97
2018-05-23T00:17:36.922Z,18.33
2018-05-23T00:20:04.518Z,17.77
2018-05-23T00:22:33.222Z,17.20
2018-05-23T00:25:00.834Z,18.20
2018-05-23T00:27:28.467Z,19.90
2018-05-23T00:29:56.087Z,17.37
2018-05-23T00:32:24.480Z,16.50
2018-05-23T00:34:52.974Z,17.07
2018-05-23T00:37:20.569Z,17.30
2018-05-23T00:39:48.171Z,18.37
2018-05-23T00:42:16.560Z,19.17
2018-05-23T00:44:44.183Z,17.53
2018-05-23T00:47:11.807Z,19.20
2018-05-23T00:49:39.429Z,18.63
2018-05-23T00:52:07.022Z,18.40
2018-05-23T00:54:35.383Z,20.87
2018-05-23T00:57:03.025Z,18.37
2018-05-23T00:59:31.030Z,17.83
2018-05-23T01:01:58.649Z,17.40
2018-05-23T01:04:26.968Z,18.70
2018-05-23T01:06:54.568Z,17.87
2018-05-23T01:09:22.273Z,19.07
2018-05-23T01:11:49.958Z,18.40
2018-05-23T01:14:17.589Z,17.87
2018-05-23T01:16:45.345Z,19.37
2018-05-23T01:19:12.989Z,17.87
2018-05-23T01:21:40.697Z,19.33
2018-05-23T01:24:08.340Z,18.90
2018-05-23T01:26:36.780Z,21.67
2018-05-23T01:29:04.544Z,20.97
2018-05-23T01:31:32.181Z,18.53
2018-05-23T01:33:59.829Z,19.90
2018-05-23T01:36:27.536Z,20.33
2018-05-23T01:38:55.183Z,20.83
2018-05-23T01:41:22.880Z,20.00
2018-05-23T01:43:50.497Z,20.20
2018-05-23T01:46:18.116Z,24.10
2018-05-23T01:48:57.530Z,29.40
2018-05-23T01:51:25.170Z,36.50
2018-05-23T01:53:52.821Z,34.40
2018-05-23T01:56:20.432Z,40.40
2018-05-23T01:58:48.073Z,36.20
2018-05-23T02:01:15.732Z,31.93
2018-05-23T02:03:43.418Z,29.20
2018-05-23T02:06:11.053Z,28.47
2018-05-23T02:08:38.727Z,28.43
2018-05-23T02:11:06.411Z,28.97
2018-05-23T02:13:34.997Z,24.73
2018-05-23T02:16:02.619Z,25.17
2018-05-23T02:18:30.332Z,25.67
2018-05-23T02:20:57.989Z,23.53
2018-05-23T02:23:26.927Z,24.50
2018-05-23T02:25:54.695Z,26.87
2018-05-23T02:28:22.431Z,24.53
2018-05-23T02:30:50.174Z,25.13
2018-05-23T02:33:17.807Z,27.87
2018-05-23T02:35:45.631Z,26.27
2018-05-23T02:38:13.304Z,27.17
2018-05-23T02:40:41.006Z,25.10
2018-05-23T02:43:08.692Z,24.47
2018-05-23T02:45:37.537Z,26.20
2018-05-23T02:48:07.281Z,26.23
2018-05-23T02:50:34.952Z,25.70
2018-05-23T02:53:03.662Z,32.47
2018-05-23T02:55:31.368Z,32.50
2018-05-23T02:57:59.038Z,36.67
2018-05-23T03:00:26.752Z,37.73
2018-05-23T03:02:54.453Z,51.90
2018-05-23T03:05:22.189Z,58.63
2018-05-23T03:07:49.821Z,51.60
2018-05-23T03:10:17.441Z,48.67
2018-05-23T03:12:45.102Z,38.17
2018-05-23T03:15:12.795Z,34.87
2018-05-23T03:17:40.421Z,32.83
2018-05-23T03:20:08.088Z,33.43
2018-05-23T03:22:35.737Z,30.57
2018-05-23T03:25:03.484Z,31.17
2018-05-23T03:27:31.276Z,30.73
2018-05-23T03:29:59.738Z,30.50
2018-05-23T03:32:27.449Z,28.50
2018-05-23T03:34:55.947Z,28.13
2018-05-23T03:37:23.571Z,27.10
2018-05-23T03:39:51.204Z,25.63
2018-05-23T03:42:18.827Z,28.13
2018-05-23T03:44:46.460Z,24.40
2018-05-23T03:47:14.077Z,24.87
2018-05-23T03:49:41.799Z,24.77
2018-05-23T03:52:09.491Z,23.83
2018-05-23T03:54:37.174Z,24.20
2018-05-23T03:57:05.136Z,23.07
2018-05-23T03:59:45.333Z,26.27
2018-05-23T04:02:24.751Z,23.73
2018-05-23T04:05:04.208Z,22.87
2018-05-23T04:07:37.840Z,25.03
2018-05-23T04:10:05.504Z,26.70
2018-05-23T04:12:33.214Z,30.73
2018-05-23T04:15:01.567Z,35.23
2018-05-23T04:17:29.805Z,32.83
2018-05-23T04:19:57.455Z,33.80
2018-05-23T04:22:25.799Z,32.97
2018-05-23T04:24:53.449Z,33.30
2018-05-23T04:27:21.094Z,32.07
2018-05-23T04:29:48.721Z,30.33
2018-05-23T04:32:17.081Z,31.70
2018-05-23T04:34:44.684Z,35.03
2018-05-23T04:37:13.038Z,34.17
2018-05-23T04:39:40.676Z,33.33
2018-05-23T04:42:08.264Z,31.33
2018-05-23T04:44:35.843Z,29.30
2018-05-23T04:47:03.451Z,27.13
2018-05-23T04:49:32.308Z,30.03
2018-05-23T04:51:59.905Z,25.70
2018-05-23T04:54:27.514Z,25.67
2018-05-23T04:56:55.135Z,24.90
2018-05-23T04:59:22.783Z,21.80
2018-05-23T05:01:51.226Z,23.00
2018-05-23T05:04:18.900Z,25.73
2018-05-23T05:06:46.497Z,25.83
2018-05-23T05:09:14.137Z,24.17
2018-05-23T05:11:42.036Z,22.60
2018-05-23T05:14:10.395Z,23.07
2018-05-23T05:16:38.010Z,21.67
2018-05-23T05:19:07.474Z,22.73
2018-05-23T05:21:38.582Z,23.00
2018-05-23T05:24:06.286Z,24.70
2018-05-23T05:26:33.954Z,25.00
2018-05-23T05:29:01.556Z,23.10
2018-05-23T05:31:29.992Z,21.10
2018-05-23T05:33:58.347Z,22.00
2018-05-23T05:36:25.939Z,22.83
2018-05-23T05:38:53.643Z,21.00
2018-05-23T05:41:21.173Z,20.70
2018-05-23T05:43:48.783Z,21.83
2018-05-23T05:46:17.195Z,21.40
2018-05-23T05:48:44.808Z,26.17
2018-05-23T05:51:12.447Z,22.67
2018-05-23T05:53:40.112Z,22.07
2018-05-23T05:56:08.446Z,23.87
2018-05-23T05:58:36.804Z,23.73
2018-05-23T06:01:04.396Z,24.03
2018-05-23T06:03:32.437Z,23.03
2018-05-23T06:06:00.074Z,25.17
2018-05-23T06:08:27.684Z,28.30
2018-05-23T06:10:55.358Z,25.03
2018-05-23T06:13:23.778Z,28.27
2018-05-23T06:15:51.506Z,26.00
2018-05-23T06:18:19.345Z,23.37
2018-05-23T06:20:46.983Z,24.13
2018-05-23T06:23:14.594Z,24.93
2018-05-23T06:25:42.218Z,27.33
2018-05-23T06:28:09.841Z,28.73
2018-05-23T06:30:38.188Z,27.70
2018-05-23T06:33:05.805Z,25.70
2018-05-23T06:35:33.448Z,25.23
2018-05-23T06:38:01.815Z,28.43
2018-05-23T06:40:29.412Z,29.33
2018-05-23T06:42:57.768Z,28.50
2018-05-23T06:45:25.413Z,28.77
2018-05-23T06:47:53.005Z,26.33
2018-05-23T06:50:20.626Z,22.63
2018-05-23T06:52:48.355Z,23.33
2018-05-23T06:55:16.002Z,22.30
2018-05-23T06:57:43.622Z,21.30
2018-05-23T07:00:11.276Z,21.27
2018-05-23T07:02:38.885Z,20.77
2018-05-23T07:05:06.497Z,20.40
2018-05-23T07:07:34.829Z,21.43
2018-05-23T07:10:02.543Z,21.07
2018-05-23T07:12:30.177Z,19.00
2018-05-23T07:14:57.840Z,20.20
2018-05-23T07:17:25.508Z,20.93
2018-05-23T07:19:53.136Z,19.40
2018-05-23T07:22:21.309Z,21.73
2018-05-23T07:24:48.985Z,21.73
2018-05-23T07:27:16.643Z,20.70
2018-05-23T07:29:44.300Z,21.73
2018-05-23T07:32:12.567Z,19.77
2018-05-23T07:34:40.201Z,20.27
2018-05-23T07:37:07.855Z,21.10
2018-05-23T07:39:35.488Z,21.03
2018-05-23T07:42:03.193Z,20.57
2018-05-23T07:44:30.847Z,22.83
2018-05-23T07:46:58.971Z,23.20
2018-05-23T07:49:27.375Z,23.27
2018-05-23T07:51:55.013Z,23.83
2018-05-23T07:54:23.447Z,21.73
2018-05-23T07:56:51.091Z,21.70
2018-05-23T07:59:18.757Z,22.40
2018-05-23T08:01:46.529Z,21.00
2018-05-23T08:04:14.209Z,22.23
2018-05-23T08:06:41.848Z,21.27
2018-05-23T08:09:09.615Z,21.50
2018-05-23T08:11:37.354Z,22.17
2018-05-23T08:14:04.990Z,21.03
2018-05-23T08:16:32.699Z,20.37
2018-05-23T08:19:01.140Z,21.13
2018-05-23T08:21:28.824Z,18.97
2018-05-23T08:23:57.128Z,19.13
2018-05-23T08:26:25.697Z,20.57
2018-05-23T08:28:53.396Z,18.40
2018-05-23T08:31:21.871Z,19.37
2018-05-23T08:33:49.506Z,18.70
2018-05-23T08:36:17.272Z,20.97
2018-05-23T08:38:44.883Z,18.80
2018-05-23T08:41:13.299Z,18.27
2018-05-23T08:43:40.955Z,19.23
2018-05-23T08:46:08.808Z,18.07
2018-05-23T08:48:36.405Z,18.80
2018-05-23T08:51:04.141Z,19.53
2018-05-23T08:53:31.919Z,18.17
2018-05-23T08:55:59.635Z,17.83
2018-05-23T08:58:27.296Z,19.47
2018-05-23T09:00:55.098Z,19.70
2018-05-23T09:03:23.648Z,19.63
2018-05-23T09:05:51.312Z,19.30
2018-05-23T09:08:18.968Z,20.67
2018-05-23T09:10:46.646Z,21.47
2018-05-23T09:13:14.368Z,18.13
2018-05-23T09:15:42.168Z,19.07
2018-05-23T09:18:09.868Z,19.97
2018-05-23T09:20:38.005Z,20.10
2018-05-23T09:23:05.686Z,19.63
2018-05-23T09:25:33.421Z,20.00
2018-05-23T09:28:01.217Z,19.53
2018-05-23T09:30:28.991Z,19.53
2018-05-23T09:32:56.673Z,19.87
2018-05-23T09:35:24.511Z,20.57
2018-05-23T09:37:52.265Z,19.87
2018-05-23T09:40:21.536Z,20.57
2018-05-23T09:42:49.330Z,18.40
2018-05-23T09:45:17.032Z,18.73
2018-05-23T09:47:44.701Z,21.97
2018-05-23T09:50:12.497Z,18.90
2018-05-23T09:52:40.370Z,19.03
2018-05-23T09:55:08.167Z,18.73
2018-05-23T09:57:36.654Z,18.80
2018-05-23T10:00:05.145Z,19.00
2018-05-23T10:02:32.919Z,20.77
2018-05-23T10:05:00.838Z,18.30
2018-05-23T10:07:28.530Z,18.70
2018-05-23T10:09:56.302Z,17.87
2018-05-23T10:12:24.007Z,19.40
2018-05-23T10:14:51.770Z,18.93
2018-05-23T10:17:19.529Z,18.43
2018-05-23T10:19:47.312Z,17.43
2018-05-23T10:22:15.861Z,18.60
2018-05-23T10:24:43.635Z,19.07
2018-05-23T10:27:11.422Z,18.57
2018-05-23T10:29:39.124Z,20.27
2018-05-23T10:32:06.941Z,20.03
2018-05-23T10:34:34.889Z,19.30
2018-05-23T10:37:02.833Z,20.07
2018-05-23T10:39:30.706Z,20.60
2018-05-23T10:41:58.491Z,21.17
2018-05-23T10:44:26.213Z,23.30
2018-05-23T10:46:54.594Z,22.50
2018-05-23T10:49:22.291Z,22.80
2018-05-23T10:51:49.987Z,24.73
2018-05-23T10:54:17.669Z,25.07
2018-05-23T10:56:45.361Z,24.97
2018-05-23T10:59:13.053Z,25.90
2018-05-23T11:01:40.725Z,24.93
2018-05-23T11:04:08.498Z,25.40
2018-05-23T11:06:36.086Z,24.17
2018-05-23T11:09:03.834Z,25.33
2018-05-23T11:11:32.828Z,25.63
2018-05-23T11:14:00.550Z,26.83
2018-05-23T11:16:28.265Z,26.27
2018-05-23T11:18:55.939Z,25.17
2018-05-23T11:21:23.550Z,25.73
2018-05-23T11:23:51.236Z,24.43
2018-05-23T11:26:18.930Z,23.93
2018-05-23T11:28:46.622Z,22.87
2018-05-23T11:31:14.452Z,23.13
2018-05-23T11:33:42.186Z,23.07
2018-05-23T11:36:10.711Z,23.33
2018-05-23T11:38:38.343Z,22.13
2018-05-23T11:41:06.415Z,23.77
2018-05-23T11:43:34.750Z,23.37
2018-05-23T11:46:02.437Z,26.63
2018-05-23T11:48:30.123Z,22.90
2018-05-23T11:50:57.785Z,22.37
2018-05-23T11:53:25.584Z,23.13
2018-05-23T11:55:53.205Z,21.40
2018-05-23T11:58:20.957Z,21.17
2018-05-23T12:00:48.647Z,21.00
2018-05-23T12:03:16.338Z,18.83
2018-05-23T12:05:43.961Z,20.43
2018-05-23T12:08:11.592Z,18.57
2018-05-23T12:10:39.514Z,18.30
2018-05-23T12:13:07.148Z,20.50
2018-05-23T12:15:34.837Z,19.10
2018-05-23T12:18:02.605Z,18.40
2018-05-23T12:20:30.297Z,20.93
2018-05-23T12:22:57.965Z,19.37
2018-05-23T12:25:25.623Z,19.13
2018-05-23T12:27:53.383Z,17.13
2018-05-23T12:30:21.043Z,19.87
2018-05-23T12:32:48.674Z,18.87
2018-05-23T12:35:16.315Z,18.63
2018-05-23T12:37:46.181Z,18.53
2018-05-23T12:40:14.629Z,17.73
2018-05-23T12:42:42.240Z,21.03
2018-05-23T12:45:10.773Z,18.10
2018-05-23T12:47:38.454Z,16.87
2018-05-23T12:50:06.878Z,17.80
2018-05-23T12:52:34.536Z,18.17
2018-05-23T12:55:02.157Z,18.50
2018-05-23T12:57:29.860Z,19.00
2018-05-23T12:59:57.586Z,16.27
2018-05-23T13:02:25.703Z,18.80
2018-05-23T13:04:53.384Z,18.33
2018-05-23T13:07:21.085Z,16.90
2018-05-23T13:09:48.798Z,17.47
2018-05-23T13:12:17.273Z,17.20
2018-05-23T13:14:44.894Z,17.33
2018-05-23T13:17:12.553Z,17.37
2018-05-23T13:19:40.306Z,18.63
2018-05-23T13:22:08.034Z,16.07
2018-05-23T13:24:36.576Z,18.10
2018-05-23T13:27:04.268Z,16.50
2018-05-23T13:29:31.886Z,16.80
2018-05-23T13:32:00.242Z,14.77
2018-05-23T13:34:28.645Z,14.13
2018-05-23T13:36:57.052Z,14.33
2018-05-23T13:39:24.694Z,14.10
2018-05-23T13:41:53.053Z,14.83
2018-05-23T13:44:20.704Z,13.03
2018-05-23T13:46:48.360Z,11.50
2018-05-23T13:49:16.060Z,12.80
2018-05-23T13:51:43.781Z,14.37
2018-05-23T13:54:12.371Z,11.63
2018-05-23T13:56:40.034Z,11.13
2018-05-23T13:59:07.669Z,10.70
2018-05-23T14:01:35.261Z,11.40
2018-05-23T14:04:02.891Z,13.50
2018-05-23T14:06:31.317Z,11.30
2018-05-23T14:08:58.909Z,13.60
2018-05-23T14:11:26.741Z,14.83
2018-05-23T14:13:54.503Z,11.80
2018-05-23T14:16:22.304Z,14.63
2018-05-23T14:19:09.238Z,12.00
2018-05-23T14:21:36.974Z,10.73
2018-05-23T14:24:05.482Z,13.17
2018-05-23T14:26:33.312Z,12.30
2018-05-23T14:29:00.923Z,12.20
2018-05-23T14:31:29.313Z,10.57
2018-05-23T14:33:57.023Z,11.03
2018-05-23T14:36:24.668Z,9.13
2018-05-23T14:38:52.309Z,9.47
2018-05-23T14:41:20.773Z,10.57
2018-05-23T14:46:50.385Z,10.93
2018-05-23T14:49:18.029Z,9.13
2018-05-23T14:51:45.673Z,10.70
2018-05-23T14:54:13.272Z,9.33
2018-05-23T14:56:41.006Z,10.73
2018-05-23T14:59:09.396Z,10.63
2018-05-23T15:01:37.011Z,10.43
2018-05-23T15:04:04.636Z,8.83
2018-05-23T15:06:32.312Z,9.17
2018-05-23T15:08:59.979Z,8.47
2018-05-23T15:11:27.623Z,10.00
2018-05-23T15:13:55.263Z,9.47
2018-05-23T15:16:22.903Z,8.23
2018-05-23T15:18:50.674Z,9.43
2018-05-23T15:21:18.435Z,12.30
2018-05-23T15:23:46.113Z,11.53
2018-05-23T15:26:13.825Z,10.77
2018-05-23T15:28:41.462Z,10.23
2018-05-23T15:31:09.847Z,8.23
2018-05-23T15:33:38.300Z,9.63
2018-05-23T15:36:05.941Z,7.43
2018-05-23T15:38:33.669Z,8.50
2018-05-23T15:41:02.041Z,7.13
2018-05-23T15:43:29.679Z,7.00
2018-05-23T15:45:57.368Z,7.80
2018-05-23T15:48:25.034Z,7.93
2018-05-23T15:50:52.897Z,8.60
2018-05-23T15:53:21.298Z,8.27
2018-05-23T15:55:48.915Z,7.63
2018-05-23T15:58:16.616Z,7.93
2018-05-23T16:00:44.346Z,6.17
2018-05-23T16:03:11.985Z,7.73
2018-05-23T16:05:40.359Z,8.43
2018-05-23T16:08:08.798Z,7.63
2018-05-23T16:10:36.426Z,6.27
2018-05-23T16:13:04.067Z,5.30
2018-05-23T16:15:31.759Z,9.17
2018-05-23T16:17:59.453Z,7.77
2018-05-23T16:20:27.301Z,8.03
2018-05-23T16:22:54.947Z,7.20
2018-05-23T16:25:23.405Z,8.27
2018-05-23T16:27:51.082Z,9.53
2018-05-23T16:30:18.868Z,7.07
2018-05-23T16:32:47.318Z,8.30
2018-05-23T16:35:15.056Z,8.53
2018-05-23T16:37:42.718Z,9.63
2018-05-23T16:40:10.433Z,7.67
2018-05-23T16:42:38.302Z,10.97
2018-05-23T16:45:06.812Z,9.30
2018-05-23T16:47:37.344Z,10.23
2018-05-23T16:50:05.011Z,9.40
2018-05-23T16:52:33.435Z,7.60
2018-05-23T16:55:01.113Z,10.03
2018-05-23T16:57:28.765Z,10.57
2018-05-23T16:59:57.186Z,10.17
2018-05-23T17:02:25.657Z,11.20
2018-05-23T17:04:53.382Z,8.20
2018-05-23T17:07:21.078Z,8.83
2018-05-23T17:09:48.667Z,10.30
2018-05-23T17:12:16.337Z,6.10
2018-05-23T17:14:44.751Z,9.07
2018-05-23T17:17:12.356Z,9.63
2018-05-23T17:19:39.982Z,8.53
2018-05-23T17:22:07.726Z,7.40
2018-05-23T17:24:37.120Z,10.50
2018-05-23T17:27:04.816Z,7.27
2018-05-23T17:29:32.461Z,8.63
2018-05-23T17:32:00.071Z,8.67
2018-05-23T17:34:27.749Z,7.03
2018-05-23T17:36:55.434Z,6.90
2018-05-23T17:39:23.085Z,7.53
2018-05-23T17:41:50.769Z,7.90
2018-05-23T17:44:18.533Z,9.23
2018-05-23T17:46:46.172Z,7.90
2018-05-23T17:49:14.645Z,11.33
2018-05-23T17:51:42.308Z,8.27
2018-05-23T17:54:10.667Z,5.80
2018-05-23T17:56:38.387Z,8.80
2018-05-23T17:59:07.551Z,7.13
2018-05-23T18:01:36.056Z,6.67
2018-05-23T18:04:03.965Z,6.10
2018-05-23T18:06:31.631Z,5.47
2018-05-23T18:09:12.960Z,6.87
2018-05-23T18:11:41.336Z,5.70
2018-05-23T18:14:17.476Z,8.27
2018-05-23T18:16:45.137Z,6.73
2018-05-23T18:19:12.707Z,5.97
2018-05-23T18:21:45.593Z,7.73
2018-05-23T18:24:13.229Z,7.40
2018-05-23T18:26:40.835Z,6.63
2018-05-23T18:29:08.461Z,6.40
2018-05-23T18:31:36.061Z,6.77
2018-05-23T18:34:03.670Z,6.83
2018-05-23T18:36:32.091Z,4.73
2018-05-23T18:39:00.601Z,6.53
2018-05-23T18:41:28.234Z,5.20
2018-05-23T18:43:56.702Z,7.33
2018-05-23T18:46:24.345Z,6.53
2018-05-23T18:48:51.970Z,7.17
2018-05-23T18:51:19.592Z,7.13
2018-05-23T18:53:48.082Z,7.60
2018-05-23T18:56:15.714Z,8.23
2018-05-23T18:58:44.101Z,6.70
2018-05-23T19:01:12.603Z,8.07
2018-05-23T19:03:40.243Z,8.10
2018-05-23T19:06:08.655Z,6.40
2018-05-23T19:08:36.290Z,6.07
2018-05-23T19:11:04.697Z,5.93
2018-05-23T19:13:32.334Z,5.23
2018-05-23T19:15:59.993Z,7.30
2018-05-23T19:18:27.688Z,9.60
2018-05-23T19:20:55.358Z,7.47
2018-05-23T19:23:23.784Z,7.53
2018-05-23T19:25:51.459Z,6.70
2018-05-23T19:28:19.073Z,8.77
2018-05-23T19:30:47.448Z,5.70
2018-05-23T19:33:15.969Z,7.93
2018-05-23T19:35:43.609Z,6.13
2018-05-23T19:38:12.019Z,5.93
2018-05-23T19:40:39.632Z,5.77
2018-05-23T19:43:07.238Z,6.03
2018-05-23T19:45:34.984Z,8.70
2018-05-23T19:48:03.446Z,9.40
2018-05-23T19:53:08.282Z,7.80
2018-05-23T19:55:35.933Z,5.93
2018-05-23T19:58:03.580Z,9.97
2018-05-23T20:00:31.233Z,7.63
2018-05-23T20:02:58.936Z,7.33
2018-05-23T20:05:27.675Z,7.83
2018-05-23T20:07:56.595Z,6.63
2018-05-23T20:10:25.582Z,5.40
2018-05-23T20:12:53.267Z,8.30
2018-05-23T20:15:20.914Z,7.33
2018-05-23T20:17:48.536Z,6.33
2018-05-23T20:20:16.120Z,5.23
2018-05-23T20:22:43.719Z,7.67
2018-05-23T20:25:12.142Z,6.60
2018-05-23T20:27:39.736Z,6.80
2018-05-23T20:30:07.372Z,8.27
2018-05-23T20:32:35.019Z,7.53
2018-05-23T20:35:02.679Z,9.13
2018-05-23T20:37:30.277Z,8.17
2018-05-23T20:40:07.373Z,7.80
2018-05-23T20:42:35.019Z,7.57
2018-05-23T20:45:02.641Z,7.07
2018-05-23T20:47:31.058Z,6.80
2018-05-23T20:49:58.801Z,7.10
2018-05-23T20:52:26.614Z,6.00
2018-05-23T20:54:54.960Z,7.07
2018-05-23T20:57:22.568Z,8.40
2018-05-23T20:59:53.256Z,6.50
2018-05-23T21:02:20.855Z,10.13
2018-05-23T21:04:48.696Z,9.83
2018-05-23T21:07:16.308Z,7.07
2018-05-23T21:09:43.887Z,7.60
2018-05-23T21:12:11.483Z,8.00
2018-05-23T21:14:39.103Z,10.73
2018-05-23T21:17:06.679Z,7.20
2018-05-23T21:19:34.331Z,9.07
2018-05-23T21:22:02.031Z,7.90
2018-05-23T21:24:30.893Z,8.70
2018-05-23T21:26:58.528Z,8.97
2018-05-23T21:29:26.329Z,7.17
2018-05-23T21:31:53.955Z,6.47
2018-05-23T21:34:21.636Z,7.37
2018-05-23T21:36:49.285Z,6.37
2018-05-23T21:39:16.881Z,8.00
2018-05-23T21:41:44.514Z,6.60
2018-05-23T21:44:12.163Z,7.33
2018-05-23T21:46:40.532Z,7.73
2018-05-23T21:49:08.189Z,6.67
2018-05-23T21:51:35.842Z,6.17
2018-05-23T21:54:03.439Z,7.63
2018-05-23T21:56:31.796Z,7.27
2018-05-23T21:58:59.440Z,8.17
2018-05-23T22:01:27.108Z,7.73
2018-05-23T22:03:54.713Z,7.53
2018-05-23T22:06:22.347Z,8.50
2018-05-23T22:08:49.957Z,6.33
2018-05-23T22:11:17.579Z,7.00
2018-05-23T22:13:45.177Z,6.90
2018-05-23T22:16:13.545Z,7.17
2018-05-23T22:18:42.639Z,6.83
2018-05-23T22:21:10.295Z,8.90
2018-05-23T22:23:37.985Z,7.37
2018-05-23T22:26:06.170Z,7.27
2018-05-23T22:28:34.556Z,7.07
2018-05-23T22:31:02.200Z,6.10
2018-05-23T22:33:29.790Z,7.20
2018-05-23T22:35:58.248Z,6.57
2018-05-23T22:38:27.878Z,9.13
2018-05-23T22:40:55.536Z,7.37
2018-05-23T22:43:23.125Z,9.67
2018-05-23T22:45:50.766Z,11.17
2018-05-23T22:48:18.419Z,6.37
2018-05-23T22:50:46.148Z,8.40
2018-05-23T22:53:13.778Z,6.27
2018-05-23T22:55:41.436Z,5.87
2018-05-23T22:58:09.115Z,8.33
2018-05-23T23:00:37.463Z,5.53
2018-05-23T23:03:05.114Z,7.57
2018-05-23T23:05:32.807Z,9.03
2018-05-23T23:08:00.464Z,10.10
2018-05-23T23:10:28.058Z,7.67
2018-05-23T23:12:56.436Z,6.30
2018-05-23T23:15:24.098Z,5.90
2018-05-23T23:17:51.667Z,5.77
2018-05-23T23:20:19.281Z,6.00
2018-05-23T23:22:46.902Z,9.83
2018-05-23T23:25:14.492Z,6.37
2018-05-23T23:27:42.863Z,6.87
2018-05-23T23:30:11.260Z,5.83
2018-05-23T23:32:38.863Z,6.60
2018-05-23T23:35:06.469Z,5.90
2018-05-23T23:37:34.050Z,7.97
2018-05-23T23:40:02.407Z,6.63
2018-05-23T23:42:30.015Z,6.03
2018-05-23T23:44:58.059Z,7.07
2018-05-23T23:47:25.674Z,7.13
2018-05-23T23:49:53.883Z,5.47
2018-05-23T23:52:21.463Z,7.80
2018-05-23T23:54:49.831Z,6.07
2018-05-23T23:57:17.439Z,7.73
2018-05-23T23:59:52.946Z,6.27
